createdAt,value
2023-12-07T00:01:28.968Z,16.46
2023-12-07T00:04:30.777Z,16.46
2023-12-07T00:10:41.844Z,16.48
2023-12-07T00:13:43.492Z,16.48
2023-12-07T00:16:45.046Z,16.48
2023-12-07T00:19:46.568Z,16.50
2023-12-07T00:22:48.288Z,16.49
2023-12-07T00:25:50.215Z,16.47
2023-12-07T00:28:51.922Z,16.45
2023-12-07T00:31:53.401Z,16.45
2023-12-07T00:34:55.012Z,16.47
2023-12-07T00:37:57.439Z,16.48
2023-12-07T00:40:59.020Z,16.47
2023-12-07T00:44:00.504Z,16.47
2023-12-07T00:47:01.979Z,16.47
2023-12-07T00:50:03.694Z,16.45
2023-12-07T00:53:05.245Z,16.46
2023-12-07T00:56:07.852Z,16.47
2023-12-07T00:59:09.362Z,16.45
2023-12-07T01:02:10.891Z,16.45
2023-12-07T01:05:12.721Z,16.45
2023-12-07T01:08:14.336Z,16.46
2023-12-07T01:11:15.962Z,16.45
2023-12-07T01:14:18.312Z,16.43
2023-12-07T01:17:19.850Z,16.44
2023-12-07T01:20:21.386Z,16.44
2023-12-07T01:23:22.984Z,16.42
2023-12-07T01:26:24.629Z,16.44
2023-12-07T01:29:26.219Z,16.43
2023-12-07T01:32:27.937Z,16.43
2023-12-07T01:35:29.919Z,16.43
2023-12-07T01:38:31.491Z,16.45
2023-12-07T01:41:33.052Z,16.46
2023-12-07T01:44:34.595Z,16.43
2023-12-07T01:47:37.619Z,16.44
2023-12-07T01:50:39.402Z,16.44
2023-12-07T01:53:41.280Z,16.43
2023-12-07T01:56:43.472Z,16.44
2023-12-07T01:59:45.103Z,16.42
2023-12-07T02:02:48.285Z,16.41
2023-12-07T02:05:50.143Z,16.39
2023-12-07T02:08:51.753Z,16.42
2023-12-07T02:11:53.340Z,16.43
